Latest Weather Observations for Meekatharra

IDW60801

Issued at 1:03 am WST Tuesday 25 April 2017 (issued every 30 minutes, with the page automatically refreshed every 10 minutes)

About weather observations | Map of weather stations | Latest weather observations for WA | Other Formats
Station Details ID: 007045 Name: MEEKATHARRA AIRPORT Lat: -26.61 Lon: 118.54 Height: 517.0 m
Data from the previous 72 hours. | See also: Recent months at Meekatharra
Date/Time
WST
Temp
°C
App
Temp
°C
Dew
Point
°C
Rel
Hum
%
Delta-T
°C
Wind Press
QNH
hPa
Press
MSL
hPa
Rain since
9am
mm
Dir  Spd
km/h
Gust
km/h
Spd
kts
Gust
kts
25/01:00am 18.2 16.9 14.9 81 2.0 ESE 15 20 8 11 1019.0 1016.3 0.0
25/12:30am 18.3 17.7 15.6 84 1.6 SE 13 17 7 9 1018.9 1016.2 0.0
25/12:00am 18.2 17.7 16.0 87 1.3 ESE 13 17 7 9 1018.9 1016.2 0.0
 
Date/Time
WST
Temp
°C
App
Temp
°C
Dew
Point
°C
Rel
Hum
%
Delta-T
°C
Wind Press
QNH
hPa
Press
MSL
hPa
Rain since
9am
mm
Dir  Spd
km/h
Gust
km/h
Spd
kts
Gust
kts
24/11:30pm 18.4 18.2 15.8 85 1.6 ESE 11 15 6 8 1018.8 1016.1 0.0
24/11:00pm 18.5 17.9 15.7 84 1.7 ESE 13 15 7 8 1018.9 1016.2 0.0
24/10:30pm 18.8 18.3 15.9 83 1.8 ESE 13 17 7 9 1019.0 1016.3 0.0
24/10:00pm 19.0 18.4 15.7 81 2.0 ESE 13 19 7 10 1019.2 1016.5 0.0
24/09:30pm 19.3 18.8 15.8 80 2.1 ESE 13 19 7 10 1019.1 1016.4 0.0
24/09:00pm 19.4 18.4 15.7 79 2.2 ESE 15 19 8 10 1019.0 1016.3 0.0
24/08:30pm 19.6 18.3 15.7 78 2.4 E 17 22 9 12 1018.9 1016.2 0.0
24/08:00pm 19.8 18.1 15.7 77 2.5 ESE 19 24 10 13 1018.6 1015.9 0.0
24/07:30pm 20.2 19.3 15.8 76 2.7 E 15 20 8 11 1018.4 1015.7 0.0
24/07:00pm 20.3 19.0 15.7 75 2.8 ESE 17 22 9 12 1017.9 1015.3 0.0
24/06:30pm 20.6 19.1 15.4 72 3.2 ESE 17 26 9 14 1017.8 1015.2 0.0
24/06:00pm 21.1 19.1 15.6 71 3.3 ESE 20 24 11 13 1017.6 1014.9 0.0
24/05:30pm 21.3 18.5 15.4 69 3.6 ESE 24 33 13 18 1017.2 1014.5 0.0
24/05:00pm 21.9 19.5 15.5 67 3.9 ESE 22 32 12 17 1017.0 1014.3 0.0
24/04:30pm 21.9 19.5 15.5 67 3.9 ESE 22 35 12 19 1016.9 1014.2 0.0
24/04:00pm 21.7 18.9 15.3 67 3.9 ESE 24 33 13 18 1016.6 1013.9 0.0
24/03:30pm 21.6 18.8 15.4 68 3.8 ESE 24 35 13 19 1016.6 1013.9 0.0
24/03:00pm 22.2 20.3 15.8 67 3.9 SE 20 32 11 17 1016.1 1013.4 0.0
24/02:30pm 21.7 19.7 15.5 68 3.8 ESE 20 26 11 14 1016.3 1013.6 0.0
24/02:00pm 21.6 19.8 15.9 70 3.5 SE 20 28 11 15 1016.5 1013.8 0.0
24/01:30pm 21.7 19.8 15.8 69 3.6 SE 20 30 11 16 1016.6 1013.9 0.0
24/01:00pm 21.5 19.8 15.8 70 3.5 ESE 19 28 10 15 1017.0 1014.3 0.0
24/12:30pm 21.4 19.1 15.7 70 3.5 ESE 22 28 12 15 1017.4 1014.7 0.0
24/12:14pm 20.2 18.2 15.4 74 2.9 ESE 20 30 11 16 1017.7 1015.1 0.0
24/12:00pm 20.8 19.2 16.4 76 2.7 ESE 20 30 11 16 1017.9 1015.3 0.0
24/11:30am 19.8 17.2 15.9 78 2.4 ESE 24 32 13 17 1018.3 1015.6 0.0
24/11:00am 18.3 16.0 15.7 85 1.6 ESE 22 30 12 16 1018.8 1016.1 0.0
24/10:59am 18.3 16.0 15.7 85 1.6 ESE 22 28 12 15 1018.8 1016.1 0.0
24/10:33am 17.9 16.3 16.1 89 1.1 SE 19 28 10 15 1018.8 1016.1 0.0
24/10:30am 18.0 16.5 16.2 89 1.1 SE 19 28 10 15 1018.8 1016.1 0.0
24/10:00am 18.4 17.2 16.0 86 1.5 SE 17 22 9 12 1019.0 1016.3 0.0
24/09:30am 18.4 16.7 15.8 85 1.6 ESE 19 24 10 13 1018.8 1016.1 0.0
24/09:00am 18.1 16.3 15.5 85 1.6 ESE 19 28 10 15 1018.6 1015.9 1.6
24/08:30am 17.9 16.6 15.7 87 1.3 ESE 17 24 9 13 1018.6 1015.9 1.6
24/08:00am 17.6 15.6 15.6 88 1.2 E 20 30 11 16 1018.3 1015.6 1.6
24/07:30am 17.6 16.1 15.4 87 1.3 E 17 26 9 14 1018.3 1015.6 1.6
24/07:00am 17.4 15.9 15.4 88 1.2 E 17 26 9 14 1017.9 1015.3 1.6
24/06:30am 17.4 15.5 15.2 87 1.3 ESE 19 26 10 14 1017.6 1014.9 1.6
24/06:00am 17.5 16.0 15.3 87 1.3 ESE 17 24 9 13 1017.4 1014.7 1.6
24/05:30am 17.5 16.4 15.3 87 1.3 SE 15 20 8 11 1017.4 1014.7 1.6
24/05:00am 17.6 16.9 15.4 87 1.3 ESE 13 17 7 9 1017.4 1014.7 1.6
24/04:30am 17.7 16.6 15.3 86 1.4 ESE 15 20 8 11 1017.1 1014.4 1.6
24/04:00am 17.7 16.2 15.3 86 1.4 E 17 24 9 13 1017.2 1014.5 1.6
24/03:30am 17.6 16.1 15.4 87 1.3 E 17 22 9 12 1017.2 1014.5 1.6
24/03:00am 17.3 16.6 15.5 89 1.1 ESE 13 20 7 11 1017.4 1014.7 1.6
24/02:30am 16.9 16.3 15.6 92 0.8 ESE 13 17 7 9 1017.3 1014.6 1.6
24/02:17am 16.7 16.5 15.6 93 0.7 SE 11 17 6 9 1017.5 1014.8 1.6
24/02:00am 16.5 15.8 15.4 93 0.7 ESE 13 19 7 10 1017.1 1014.4 1.6
24/01:30am 16.6 15.9 15.3 92 0.8 ESE 13 17 7 9 1017.2 1014.5 1.6
24/01:00am 16.9 16.5 15.1 89 1.1 ESE 11 15 6 8 1017.7 1015.1 1.6
24/12:30am 17.3 16.5 15.1 87 1.3 E 13 19 7 10 1017.9 1015.3 1.6
24/12:00am 17.6 17.5 15.0 85 1.5 ENE 9 13 5 7 1018.5 1015.8 1.4
 
Date/Time
WST
Temp
°C
App
Temp
°C
Dew
Point
°C
Rel
Hum
%
Delta-T
°C
Wind Press
QNH
hPa
Press
MSL
hPa
Rain since
9am
mm
Dir  Spd
km/h
Gust
km/h
Spd
kts
Gust
kts
23/11:30pm 17.4 16.6 15.2 87 1.3 E 13 20 7 11 1018.4 1015.7 1.4
23/11:26pm 17.5 16.3 15.1 86 1.4 E 15 20 8 11 1018.5 1015.8 1.4
23/11:00pm 17.5 15.9 15.0 85 1.5 E 17 22 9 12 1018.7 1016.0 1.4
23/10:59pm 17.4 16.1 14.9 85 1.5 E 15 22 8 12 1018.7 1016.0 1.4
23/10:30pm 17.5 15.4 14.8 84 1.6 E 19 28 10 15 1018.7 1016.0 1.4
23/10:00pm 17.4 14.8 15.0 86 1.4 E 22 32 12 17 1018.8 1016.1 1.4
23/09:30pm 17.4 14.8 15.0 86 1.4 E 22 30 12 16 1018.7 1016.0 1.2
23/09:00pm 17.5 14.9 15.0 85 1.5 ESE 22 33 12 18 1018.7 1016.0 1.2
23/08:30pm 17.8 14.9 15.1 84 1.6 ESE 24 33 13 18 1018.7 1016.0 1.2
23/08:00pm 18.2 14.9 15.1 82 1.8 E 26 41 14 22 1018.4 1015.7 1.2
23/07:30pm 18.3 14.4 15.4 83 1.7 E 30 41 16 22 1018.1 1015.4 1.2
23/07:08pm 18.2 13.9 15.5 84 1.6 ESE 32 48 17 26 1017.8 1015.2 1.2
23/07:02pm 18.2 14.7 15.5 84 1.6 ESE 28 48 15 26 1017.7 1015.1 1.2
23/07:00pm 18.4 15.5 16.0 86 1.5 ESE 26 41 14 22 1017.7 1015.1 1.2
23/06:50pm 18.8 15.6 16.2 85 1.6 ESE 28 41 15 22 1017.7 1015.1 1.0
23/06:30pm 20.3 15.6 14.9 71 3.2 ESE 33 44 18 24 1017.0 1014.3 0.0
23/06:08pm 20.8 16.2 14.7 68 3.7 ESE 32 50 17 27 1017.0 1014.3 0.0
23/06:00pm 21.2 17.8 14.8 67 3.8 ESE 26 39 14 21 1017.0 1014.3 0.0
23/05:30pm 21.8 17.3 14.9 65 4.2 ESE 32 46 17 25 1016.1 1013.4 0.0
23/05:00pm 22.6 18.0 15.0 62 4.6 ESE 33 48 18 26 1015.8 1013.1 0.0
23/04:30pm 23.7 18.9 15.5 60 5.0 ESE 35 46 19 25 1015.3 1012.6 0.0
23/04:00pm 24.0 19.2 15.5 59 5.2 ESE 35 50 19 27 1014.9 1012.2 0.0
23/03:30pm 24.7 20.4 15.3 56 5.8 SE 32 44 17 24 1014.9 1012.2 0.0
23/03:00pm 25.3 21.2 15.9 56 5.9 SE 32 43 17 23 1014.9 1012.2 0.0
23/02:30pm 25.6 22.4 16.2 56 5.9 SE 28 41 15 22 1014.9 1012.2 0.0
23/02:00pm 24.9 20.5 16.6 60 5.2 SSE 35 50 19 27 1014.8 1012.1 0.0
23/01:30pm 24.8 20.0 16.5 60 5.2 SSE 37 50 20 27 1014.5 1011.8 0.0
23/01:03pm 24.6 19.1 16.8 62 4.9 S 41 59 22 32 1014.7 1012.0 0.0
23/01:00pm 23.7 17.5 16.0 62 4.8 S 43 59 23 32 1014.6 1011.9 0.0
23/12:58pm 24.0 18.2 16.0 61 5.0 S 41 59 22 32 1014.6 1011.9 0.0
23/12:44pm 28.0 25.2 15.3 46 7.9 WNW 24 59 13 32 1014.3 1011.6 0.0
23/12:30pm 29.7 26.8 13.0 35 10.1 NNW 20 32 11 17 1014.6 1011.9 0.0
23/12:00pm 29.2 27.3 14.2 40 9.2 NNW 17 24 9 13 1015.4 1012.7 0.0
23/11:30am 28.9 27.0 15.1 43 8.6 N 19 26 10 14 1016.0 1013.2 0.0
23/11:00am 28.1 26.2 15.7 46 7.8 NNE 20 30 11 16 1016.2 1013.5 0.0
23/10:30am 26.8 24.3 16.1 52 6.7 NNE 24 35 13 19 1016.6 1013.9 0.0
23/10:00am 25.4 23.5 16.8 59 5.4 NNE 22 32 12 17 1016.8 1014.1 0.0
23/09:30am 24.3 21.9 16.3 61 5.0 NNE 24 39 13 21 1017.1 1014.4 0.0
23/09:00am 23.6 22.0 16.4 64 4.5 NE 20 32 11 17 1017.3 1014.6 0.0
23/08:30am 21.9 20.4 16.2 70 3.5 NE 19 26 10 14 1017.4 1014.7 0.0
23/08:00am 20.7 19.5 16.1 75 2.8 ENE 17 22 9 12 1017.3 1014.6 0.0
23/07:30am 19.9 18.2 15.7 77 2.6 E 19 24 10 13 1017.1 1014.4 0.0
23/07:00am 19.5 18.3 16.0 80 2.1 E 17 22 9 12 1016.9 1014.2 0.0
23/06:30am 19.4 18.1 15.7 79 2.2 E 17 20 9 11 1016.8 1014.1 0.0
23/06:00am 19.7 18.4 15.8 78 2.4 E 17 24 9 13 1016.6 1013.9 0.0
23/05:30am 20.0 19.1 15.8 77 2.6 E 15 20 8 11 1016.7 1014.0 0.0
23/05:00am 20.1 18.8 15.7 76 2.7 E 17 24 9 13 1016.6 1013.9 0.0
23/04:30am 20.5 18.6 15.7 74 2.9 E 20 26 11 14 1016.7 1014.0 0.0
23/04:00am 21.0 18.6 15.5 71 3.3 E 22 30 12 16 1016.7 1014.0 0.0
23/03:30am 20.7 19.0 15.7 73 3.0 ENE 19 28 10 15 1016.9 1014.2 0.0
23/03:00am 21.2 19.3 15.7 71 3.4 E 20 28 11 15 1016.8 1014.1 0.0
23/02:30am 21.0 18.9 15.3 70 3.5 ENE 20 28 11 15 1016.6 1013.9 0.0
23/02:00am 21.0 18.4 14.9 68 3.7 NE 22 32 12 17 1016.7 1014.0 0.0
23/01:30am 21.3 18.7 13.7 62 4.5 NE 20 30 11 16 1016.7 1014.0 0.0
23/01:00am 20.8 19.3 14.2 66 3.9 ENE 15 24 8 13 1016.7 1014.0 0.0
23/12:30am 20.9 19.6 14.8 68 3.7 ENE 15 20 8 11 1016.8 1014.1 0.0
23/12:00am 20.7 18.9 15.5 72 3.2 ENE 19 26 10 14 1016.8 1014.1 0.0
 
Date/Time
WST
Temp
°C
App
Temp
°C
Dew
Point
°C
Rel
Hum
%
Delta-T
°C
Wind Press
QNH
hPa
Press
MSL
hPa
Rain since
9am
mm
Dir  Spd
km/h
Gust
km/h
Spd
kts
Gust
kts
22/11:30pm 20.6 19.4 16.0 75 2.8 ENE 17 24 9 13 1017.1 1014.4 0.0
22/11:00pm 20.7 19.4 15.9 74 2.9 ENE 17 26 9 14 1017.3 1014.6 0.0
22/10:30pm 21.0 19.4 16.0 73 3.1 ENE 19 24 10 13 1017.6 1014.9 0.0
22/10:00pm 21.2 20.7 16.8 76 2.7 ENE 15 19 8 10 1017.6 1014.9 0.0
22/09:30pm 21.6 20.6 16.6 73 3.1 ENE 17 22 9 12 1017.7 1015.1 0.0
22/09:00pm 22.1 21.6 15.9 68 3.8 ENE 13 19 7 10 1018.2 1015.5 0.0
22/08:30pm 22.6 21.5 15.4 64 4.4 E 15 20 8 11 1017.8 1015.2 0.0
22/08:00pm 23.2 22.2 16.5 66 4.2 E 17 24 9 13 1017.7 1015.1 0.0
22/07:30pm 23.2 21.0 17.0 68 3.9 ESE 24 30 13 16 1017.7 1015.1 0.0
22/07:00pm 24.9 23.1 16.1 58 5.5 ESE 20 30 11 16 1017.8 1015.2 0.0
22/06:30pm 25.2 23.2 15.5 55 6.0 SE 20 28 11 15 1017.4 1014.7 0.0
22/06:00pm 25.6 23.0 15.0 52 6.5 SE 22 32 12 17 1016.8 1014.1 0.0
22/05:30pm 26.1 23.8 15.8 53 6.4 SE 22 30 12 16 1016.5 1013.8 0.0
22/05:00pm 26.4 23.4 14.8 49 7.1 SE 24 33 13 18 1016.1 1013.4 0.0
22/04:30pm 27.5 24.5 14.8 45 7.8 SE 24 32 13 17 1016.0 1013.2 0.0
22/04:00pm 28.1 24.8 15.1 45 8.1 SE 26 35 14 19 1015.7 1013.0 0.0
22/03:30pm 28.8 26.7 15.3 43 8.4 SE 20 30 11 16 1015.8 1013.1 0.0
22/03:00pm 28.4 26.0 15.3 45 8.2 ESE 22 32 12 17 1015.7 1013.0 0.0
22/02:30pm 28.6 26.7 15.8 45 8.0 SE 20 28 11 15 1016.3 1013.6 0.0
22/02:00pm 28.3 26.8 16.2 47 7.6 SE 19 26 10 14 1016.4 1013.7 0.0
22/01:30pm 27.1 25.6 16.4 52 6.8 SE 19 26 10 14 1016.6 1013.9 0.0
22/01:00pm 27.4 26.2 17.0 53 6.6 SE 19 30 10 16 1016.9 1014.2 0.0
22/12:30pm 27.1 27.5 16.4 52 6.8 ENE 9 17 5 9 1017.3 1014.6 0.0
22/12:00pm 27.1 26.4 15.5 49 7.2 ENE 13 17 7 9 1017.8 1015.2 0.0
22/11:30am 26.9 26.5 16.2 52 6.7 NE 13 24 7 13 1018.3 1015.6 0.0
22/11:00am 26.5 25.7 16.1 52 6.5 NE 15 28 8 15 1018.7 1016.0 0.0
22/10:30am 26.2 25.5 16.4 54 6.2 ENE 15 30 8 16 1019.0 1016.3 0.0
22/10:00am 25.3 23.3 16.4 57 5.6 NE 22 32 12 17 1019.0 1016.3 0.0
22/09:30am 24.5 22.0 16.2 60 5.2 NE 24 32 13 17 1019.3 1016.6 0.0
22/09:00am 23.7 21.1 16.0 62 4.8 ENE 24 37 13 20 1019.6 1017.0 0.0
22/08:30am 23.0 20.9 16.3 66 4.2 ENE 22 30 12 16 1019.7 1017.1 0.0
22/08:00am 21.7 19.1 16.0 70 3.5 ENE 24 33 13 18 1019.4 1016.7 0.0
22/07:30am 21.0 19.3 16.2 74 3.0 E 20 28 11 15 1019.2 1016.5 0.0
22/07:00am 20.4 19.6 16.0 76 2.7 E 15 20 8 11 1019.1 1016.4 0.0
22/06:30am 19.9 19.1 16.0 78 2.4 E 15 20 8 11 1018.5 1015.8 0.0
22/06:00am 20.1 19.3 16.1 78 2.4 E 15 19 8 10 1018.4 1015.7 0.0
22/05:30am 20.3 19.9 16.3 78 2.5 E 13 19 7 10 1018.4 1015.7 0.0
22/05:00am 20.4 20.0 16.2 77 2.6 E 13 17 7 9 1018.3 1015.6 0.0
22/04:30am 20.7 20.3 16.3 76 2.7 E 13 15 7 8 1018.1 1015.4 0.0
22/04:00am 21.0 21.4 16.4 75 2.8 ESE 9 13 5 7 1018.1 1015.4 0.0
22/03:30am 21.2 21.3 16.4 74 3.0 ENE 11 19 6 10 1017.7 1015.1 0.0
22/03:00am 21.4 20.3 16.4 73 3.1 ENE 17 22 9 12 1017.5 1014.8 0.0
22/02:30am 21.6 21.4 16.6 73 3.1 E 13 17 7 9 1017.5 1014.8 0.0
22/02:00am 21.5 20.5 16.7 74 3.0 E 17 24 9 13 1017.5 1014.8 0.0
22/01:30am 21.7 20.8 16.9 74 3.0 E 17 22 9 12 1017.7 1015.1 0.0

Other Formats:

Comma delimited format used in spreadsheet applications
http://www.bom.gov.au/fwo/IDW60801/IDW60801.94430.axf

JavaScript Object Notation format (JSON) in row-major order
http://www.bom.gov.au/fwo/IDW60801/IDW60801.94430.json